createdAt,value
2023-07-03T00:02:10.593Z,23.83
2023-07-03T00:04:37.152Z,19.10
2023-07-03T00:07:04.791Z,18.07
2023-07-03T00:09:31.475Z,20.40
2023-07-03T00:11:57.876Z,20.52
2023-07-03T00:14:24.475Z,17.77
2023-07-03T00:16:51.276Z,17.23
2023-07-03T00:19:18.342Z,22.13
2023-07-03T00:21:45.101Z,21.25
2023-07-03T00:24:12.826Z,25.00
2023-07-03T00:26:39.679Z,15.45
2023-07-03T00:29:06.634Z,15.68
2023-07-03T00:31:33.294Z,17.57
2023-07-03T00:33:59.846Z,19.80
2023-07-03T00:36:26.728Z,22.58
2023-07-03T00:38:54.175Z,22.90
2023-07-03T00:41:20.603Z,23.60
2023-07-03T00:43:47.000Z,23.00
2023-07-03T00:46:13.518Z,18.33
2023-07-03T00:48:41.652Z,25.70
2023-07-03T00:51:11.613Z,26.67
2023-07-03T00:53:38.066Z,27.00
2023-07-03T00:56:05.422Z,13.67
2023-07-03T00:58:32.001Z,26.13
2023-07-03T01:01:17.041Z,22.13
2023-07-03T01:03:50.336Z,21.20
2023-07-03T01:06:25.142Z,25.30
2023-07-03T01:08:57.042Z,21.80
2023-07-03T01:11:23.820Z,28.52
2023-07-03T01:13:54.680Z,21.27
2023-07-03T01:16:21.774Z,22.70
2023-07-03T01:18:51.262Z,23.00
2023-07-03T01:21:27.016Z,29.80
2023-07-03T01:23:59.762Z,22.80
2023-07-03T01:26:28.158Z,22.75
2023-07-03T01:29:00.445Z,19.63
2023-07-03T01:31:30.377Z,23.27
2023-07-03T01:33:59.022Z,23.37
2023-07-03T01:36:26.531Z,23.38
2023-07-03T01:38:55.108Z,24.42
2023-07-03T01:41:21.777Z,17.52
2023-07-03T01:43:48.794Z,21.70
2023-07-03T01:46:15.732Z,16.07
2023-07-03T01:48:42.399Z,24.95
2023-07-03T01:51:11.775Z,22.70
2023-07-03T01:53:51.742Z,29.17
2023-07-03T01:56:29.721Z,19.60
2023-07-03T01:59:29.257Z,21.93
2023-07-03T02:02:14.260Z,21.98
2023-07-03T02:04:58.857Z,21.70
2023-07-03T02:07:28.394Z,14.43
2023-07-03T02:09:55.362Z,19.02
2023-07-03T02:12:21.853Z,16.63
2023-07-03T02:14:48.227Z,21.38
2023-07-03T02:17:14.985Z,20.17
2023-07-03T02:19:41.560Z,22.27
2023-07-03T02:22:07.935Z,19.02
2023-07-03T02:24:35.372Z,15.20
2023-07-03T02:27:01.900Z,18.15
2023-07-03T02:29:28.409Z,16.45
2023-07-03T02:31:55.801Z,11.52
2023-07-03T02:34:22.311Z,15.98
2023-07-03T02:36:49.500Z,14.50
2023-07-03T02:39:16.050Z,16.70
2023-07-03T02:41:43.655Z,12.95
2023-07-03T02:44:10.089Z,12.07
2023-07-03T02:46:36.530Z,12.75
2023-07-03T02:49:05.347Z,9.57
2023-07-03T02:51:32.769Z,12.43
2023-07-03T02:53:59.235Z,11.77
2023-07-03T02:56:25.603Z,9.98
2023-07-03T02:58:52.023Z,10.57
2023-07-03T03:01:18.513Z,6.50
2023-07-03T03:03:45.026Z,8.00
2023-07-03T03:06:11.760Z,11.10
2023-07-03T03:08:38.186Z,8.27
2023-07-03T03:11:04.890Z,7.53
2023-07-03T03:13:31.407Z,7.93
2023-07-03T03:15:57.780Z,6.35
2023-07-03T03:18:24.209Z,5.38
2023-07-03T03:20:50.693Z,8.95
2023-07-03T03:23:17.066Z,8.48
2023-07-03T03:25:43.858Z,5.73
2023-07-03T03:28:10.653Z,7.20
2023-07-03T03:30:37.110Z,5.65
2023-07-03T03:33:03.622Z,8.38
2023-07-03T03:35:29.966Z,7.22
2023-07-03T03:37:56.388Z,5.67
2023-07-03T03:40:22.980Z,6.55
2023-07-03T03:42:50.413Z,7.07
2023-07-03T03:45:17.291Z,5.97
2023-07-03T03:47:43.828Z,5.40
2023-07-03T03:50:10.812Z,7.40
2023-07-03T03:52:37.216Z,5.88
2023-07-03T03:55:03.910Z,5.07
2023-07-03T03:57:31.619Z,6.70
2023-07-03T03:59:58.043Z,7.00
2023-07-03T04:02:24.460Z,6.97
2023-07-03T04:04:53.066Z,9.75
2023-07-03T04:07:19.610Z,6.53
2023-07-03T04:09:46.090Z,4.35
2023-07-03T04:12:12.651Z,6.35
2023-07-03T04:14:40.037Z,5.63
2023-07-03T04:17:07.250Z,6.38
2023-07-03T04:19:35.921Z,6.95
2023-07-03T04:22:02.441Z,6.38
2023-07-03T04:24:28.889Z,12.30
2023-07-03T04:26:55.506Z,8.50
2023-07-03T04:29:22.501Z,8.35
2023-07-03T04:31:49.102Z,4.60
2023-07-03T04:34:15.590Z,9.43
2023-07-03T04:36:42.029Z,8.40
2023-07-03T04:39:08.552Z,5.93
2023-07-03T04:41:35.139Z,5.97
2023-07-03T04:44:01.602Z,6.93
2023-07-03T04:46:28.949Z,5.70
2023-07-03T04:48:56.311Z,7.30
2023-07-03T04:51:23.137Z,6.00
2023-07-03T04:53:49.481Z,7.72
2023-07-03T04:56:15.935Z,7.30
2023-07-03T04:58:42.536Z,6.63
2023-07-03T05:01:09.067Z,7.05
2023-07-03T05:03:35.505Z,6.27
2023-07-03T05:06:02.022Z,8.18
2023-07-03T05:08:28.390Z,9.50
2023-07-03T05:10:54.857Z,5.13
2023-07-03T05:13:24.046Z,7.72
2023-07-03T05:15:50.838Z,6.23
2023-07-03T05:18:17.545Z,4.45
2023-07-03T05:20:44.032Z,6.93
2023-07-03T05:23:10.694Z,6.18
2023-07-03T05:25:37.105Z,9.48
2023-07-03T05:28:03.629Z,9.97
2023-07-03T05:30:30.028Z,9.75
2023-07-03T05:32:57.170Z,10.65
2023-07-03T05:35:23.633Z,7.20
2023-07-03T05:37:50.108Z,7.40
2023-07-03T05:40:16.857Z,5.57
2023-07-03T05:42:43.593Z,7.78
2023-07-03T05:45:10.768Z,6.72
2023-07-03T05:47:37.339Z,8.15
2023-07-03T05:50:05.110Z,10.30
2023-07-03T05:52:31.582Z,7.47
2023-07-03T05:54:58.121Z,7.45
2023-07-03T05:57:28.068Z,6.65
2023-07-03T05:59:54.553Z,8.75
2023-07-03T06:02:21.345Z,9.85
2023-07-03T06:04:47.861Z,7.63
2023-07-03T06:07:14.304Z,13.25
2023-07-03T06:09:42.531Z,8.80
2023-07-03T06:12:09.218Z,8.05
2023-07-03T06:14:35.755Z,11.50
2023-07-03T06:17:02.346Z,8.43
2023-07-03T06:19:30.325Z,7.47
2023-07-03T06:21:57.648Z,8.77
2023-07-03T06:24:26.692Z,8.50
2023-07-03T06:26:53.326Z,7.57
2023-07-03T06:29:21.748Z,9.10
2023-07-03T06:31:48.236Z,12.25
2023-07-03T06:34:14.650Z,7.03
2023-07-03T06:36:42.462Z,7.85
2023-07-03T06:39:10.686Z,7.25
2023-07-03T06:41:37.296Z,5.70
2023-07-03T06:44:05.613Z,7.72
2023-07-03T06:46:33.081Z,12.05
2023-07-03T06:48:59.721Z,9.27
2023-07-03T06:51:26.680Z,7.25
2023-07-03T06:53:53.886Z,7.30
2023-07-03T06:56:21.584Z,10.15
2023-07-03T06:58:49.545Z,7.38
2023-07-03T07:01:18.865Z,8.25
2023-07-03T07:03:45.842Z,8.93
2023-07-03T07:06:16.922Z,7.00
2023-07-03T07:08:44.383Z,10.27
2023-07-03T07:11:13.629Z,14.18
2023-07-03T07:13:45.698Z,8.95
2023-07-03T07:16:13.644Z,7.72
2023-07-03T07:18:40.708Z,8.63
2023-07-03T07:21:07.428Z,8.00
2023-07-03T07:23:35.324Z,8.93
2023-07-03T07:26:02.055Z,9.32
2023-07-03T07:28:28.513Z,11.35
2023-07-03T07:30:58.457Z,10.77
2023-07-03T07:33:27.885Z,9.88
2023-07-03T07:35:54.317Z,9.82
2023-07-03T07:38:21.314Z,10.93
2023-07-03T07:40:47.780Z,8.48
2023-07-03T07:43:14.255Z,7.17
2023-07-03T07:45:40.932Z,6.70
2023-07-03T07:48:08.620Z,9.82
2023-07-03T07:50:37.737Z,9.30
2023-07-03T07:53:04.614Z,8.95
2023-07-03T07:55:36.485Z,5.93
2023-07-03T07:58:04.358Z,13.18
2023-07-03T08:00:30.948Z,11.13
2023-07-03T08:02:58.127Z,9.75
2023-07-03T08:05:24.697Z,9.60
2023-07-03T08:07:51.160Z,6.30
2023-07-03T08:10:17.719Z,8.38
2023-07-03T08:12:44.458Z,9.30
2023-07-03T08:15:11.797Z,7.45
2023-07-03T08:17:38.631Z,10.25
2023-07-03T08:20:07.688Z,9.43
2023-07-03T08:22:34.266Z,8.90
2023-07-03T08:25:04.231Z,8.43
2023-07-03T08:27:30.803Z,13.75
2023-07-03T08:29:57.460Z,7.05
2023-07-03T08:32:24.408Z,7.33
2023-07-03T08:37:20.962Z,7.78
2023-07-03T08:39:47.486Z,12.35
2023-07-03T08:42:21.148Z,8.00
2023-07-03T08:44:47.801Z,8.67
2023-07-03T08:47:25.190Z,8.80
2023-07-03T08:49:53.244Z,9.18
2023-07-03T08:52:32.095Z,9.68
2023-07-03T08:54:59.267Z,6.60
2023-07-03T08:57:27.157Z,5.67
2023-07-03T08:59:54.684Z,6.82
2023-07-03T09:02:41.931Z,7.32
2023-07-03T09:05:20.726Z,9.02
2023-07-03T09:07:54.785Z,7.70
2023-07-03T09:10:30.327Z,7.80
2023-07-03T09:13:21.860Z,5.80
2023-07-03T09:16:12.949Z,5.90
2023-07-03T09:18:46.500Z,7.00
2023-07-03T09:21:13.415Z,8.60
2023-07-03T09:23:50.912Z,8.70
2023-07-03T09:26:22.571Z,6.45
2023-07-03T09:28:50.093Z,7.03
2023-07-03T09:31:17.458Z,6.65
2023-07-03T09:33:43.993Z,6.03
2023-07-03T09:36:23.965Z,6.50
2023-07-03T09:38:50.422Z,6.28
2023-07-03T09:41:35.049Z,7.47
2023-07-03T09:44:13.308Z,6.00
2023-07-03T09:46:40.840Z,9.18
2023-07-03T09:49:22.884Z,7.33
2023-07-03T09:51:55.229Z,4.88
2023-07-03T09:54:26.542Z,9.40
2023-07-03T09:56:53.046Z,5.57
2023-07-03T09:59:19.654Z,8.23
2023-07-03T10:07:15.745Z,9.27
2023-07-03T10:12:27.978Z,9.68
2023-07-03T10:15:02.599Z,7.00
2023-07-03T10:17:43.484Z,9.15
2023-07-03T10:20:17.042Z,12.07
2023-07-03T10:22:43.704Z,9.60
2023-07-03T10:25:21.279Z,15.85
2023-07-03T10:27:52.760Z,7.53
2023-07-03T10:30:20.249Z,11.00
2023-07-03T10:32:53.017Z,11.30
2023-07-03T10:35:22.764Z,10.32
2023-07-03T10:38:10.399Z,9.32
2023-07-03T10:41:00.020Z,8.53
2023-07-03T10:43:37.277Z,7.25
2023-07-03T10:46:08.796Z,12.43
2023-07-03T10:48:38.017Z,8.32
2023-07-03T10:51:19.391Z,8.50
2023-07-03T10:53:53.111Z,11.47
2023-07-03T10:56:30.829Z,11.38
2023-07-03T10:59:13.387Z,14.27
2023-07-03T11:02:10.949Z,10.23
2023-07-03T11:04:42.690Z,13.13
2023-07-03T11:07:16.759Z,11.60
2023-07-03T11:10:28.478Z,6.43
2023-07-03T11:12:57.496Z,10.65
2023-07-03T11:15:35.828Z,9.93
2023-07-03T11:23:41.585Z,11.38
2023-07-03T11:29:12.129Z,7.43
2023-07-03T11:31:44.237Z,7.63
2023-07-03T11:44:48.050Z,6.63
2023-07-03T11:47:35.148Z,6.70
2023-07-03T11:50:05.220Z,9.10
2023-07-03T11:52:37.252Z,12.40
2023-07-03T11:55:38.902Z,8.13
2023-07-03T11:58:20.759Z,7.53
2023-07-03T12:01:24.581Z,8.03
2023-07-03T12:03:56.419Z,9.07
2023-07-03T12:06:41.481Z,6.93
2023-07-03T12:09:21.646Z,9.27
2023-07-03T12:12:01.397Z,6.63
2023-07-03T12:14:43.254Z,6.83
2023-07-03T12:17:19.410Z,7.20
2023-07-03T12:19:47.571Z,8.60
2023-07-03T12:22:22.757Z,11.60
2023-07-03T12:24:49.251Z,7.72
2023-07-03T12:27:23.811Z,5.43
2023-07-03T12:29:50.397Z,7.97
2023-07-03T12:32:28.885Z,8.35
2023-07-03T12:35:12.548Z,9.15
2023-07-03T12:37:47.420Z,9.68
2023-07-03T12:40:16.465Z,7.27
2023-07-03T12:42:46.231Z,10.27
2023-07-03T12:45:14.485Z,7.68
2023-07-03T12:47:41.000Z,6.68
2023-07-03T12:50:14.870Z,4.95
2023-07-03T12:52:41.462Z,7.33
2023-07-03T12:55:14.441Z,5.75
2023-07-03T12:57:42.481Z,9.55
2023-07-03T13:00:16.945Z,9.88
2023-07-03T13:02:44.330Z,6.07
2023-07-03T13:05:14.252Z,6.07
2023-07-03T13:07:44.045Z,9.77
2023-07-03T13:10:15.284Z,5.85
2023-07-03T13:12:42.317Z,8.23
2023-07-03T13:15:40.917Z,9.63
2023-07-03T13:18:14.332Z,7.83
2023-07-03T13:20:53.439Z,7.07
2023-07-03T13:23:47.623Z,10.40
2023-07-03T13:26:23.190Z,8.63
2023-07-03T13:28:58.691Z,8.95
2023-07-03T13:31:34.847Z,5.97
2023-07-03T13:34:16.729Z,7.60
2023-07-03T13:36:47.610Z,10.77
2023-07-03T13:39:27.372Z,12.10
2023-07-03T13:41:56.586Z,9.45
2023-07-03T13:44:24.765Z,7.37
2023-07-03T13:46:53.412Z,7.63
2023-07-03T13:49:20.948Z,5.65
2023-07-03T13:51:48.828Z,7.35
2023-07-03T13:54:16.214Z,6.80
2023-07-03T13:56:43.471Z,5.97
2023-07-03T13:59:10.768Z,8.73
2023-07-03T14:01:38.984Z,10.13
2023-07-03T14:04:06.139Z,9.77
2023-07-03T14:06:34.004Z,11.32
2023-07-03T14:09:00.842Z,6.27
2023-07-03T14:11:27.645Z,9.23
2023-07-03T14:13:54.445Z,5.60
2023-07-03T14:16:21.098Z,6.72
2023-07-03T14:18:47.640Z,7.97
2023-07-03T14:21:16.523Z,6.53
2023-07-03T14:23:43.645Z,4.70
2023-07-03T14:26:11.266Z,5.05
2023-07-03T14:28:39.924Z,10.23
2023-07-03T14:31:06.848Z,7.05
2023-07-03T14:33:33.469Z,9.70
2023-07-03T14:36:00.019Z,5.38
2023-07-03T14:38:26.506Z,6.93
2023-07-03T14:40:53.205Z,8.60
2023-07-03T14:43:19.583Z,6.20
2023-07-03T14:45:47.093Z,10.60
2023-07-03T14:48:13.742Z,7.80
2023-07-03T14:50:40.248Z,9.80
2023-07-03T14:53:07.667Z,10.82
2023-07-03T14:55:34.163Z,11.98
2023-07-03T14:58:00.941Z,8.17
2023-07-03T15:00:28.428Z,10.82
2023-07-03T15:02:54.948Z,11.52
2023-07-03T15:05:21.568Z,12.00
2023-07-03T15:07:50.616Z,12.10
2023-07-03T15:10:19.657Z,7.57
2023-07-03T15:12:46.100Z,8.07
2023-07-03T15:15:12.781Z,8.07
2023-07-03T15:17:39.390Z,8.77
2023-07-03T15:20:07.178Z,12.88
2023-07-03T15:22:33.890Z,9.77
2023-07-03T15:25:00.519Z,7.63
2023-07-03T15:27:27.408Z,8.73
2023-07-03T15:29:53.820Z,8.30
2023-07-03T15:32:22.695Z,7.07
2023-07-03T15:34:53.271Z,7.07
2023-07-03T15:37:19.916Z,8.15
2023-07-03T15:39:46.492Z,8.43
2023-07-03T15:42:12.922Z,7.20
2023-07-03T15:44:39.350Z,13.43
2023-07-03T15:47:07.540Z,8.97
2023-07-03T15:49:36.695Z,11.60
2023-07-03T15:52:05.536Z,8.13
2023-07-03T15:54:32.944Z,8.18
2023-07-03T15:56:59.453Z,5.57
2023-07-03T15:59:25.870Z,6.47
2023-07-03T16:01:53.291Z,7.32
2023-07-03T16:04:19.759Z,9.32
2023-07-03T16:06:46.863Z,10.00
2023-07-03T16:09:15.118Z,10.20
2023-07-03T16:11:41.613Z,11.10
2023-07-03T16:14:08.124Z,6.07
2023-07-03T16:16:34.542Z,8.68
2023-07-03T16:19:01.217Z,9.18
2023-07-03T16:21:29.937Z,5.82
2023-07-03T16:23:58.460Z,5.53
2023-07-03T16:26:26.264Z,12.48
2023-07-03T16:28:53.423Z,8.35
2023-07-03T16:31:22.285Z,8.43
2023-07-03T16:33:50.982Z,9.68
2023-07-03T16:36:22.855Z,6.60
2023-07-03T16:38:55.163Z,10.77
2023-07-03T16:41:22.866Z,6.90
2023-07-03T16:43:50.720Z,12.15
2023-07-03T16:46:20.091Z,12.60
2023-07-03T16:48:48.355Z,8.17
2023-07-03T16:51:15.645Z,8.85
2023-07-03T16:53:42.984Z,10.90
2023-07-03T16:56:18.992Z,8.60
2023-07-03T16:58:46.611Z,8.18
2023-07-03T17:01:16.039Z,11.93
2023-07-03T17:03:42.956Z,9.23
2023-07-03T17:06:25.030Z,10.30
2023-07-03T17:08:51.801Z,10.25
2023-07-03T17:11:18.569Z,10.38
2023-07-03T17:13:45.133Z,8.87
2023-07-03T17:16:13.575Z,11.65
2023-07-03T17:18:40.139Z,13.23
2023-07-03T17:21:06.528Z,10.52
2023-07-03T17:23:32.875Z,10.00
2023-07-03T17:25:59.723Z,16.07
2023-07-03T17:28:27.228Z,9.10
2023-07-03T17:30:54.660Z,11.80
2023-07-03T17:33:22.113Z,9.70
2023-07-03T17:35:48.774Z,10.32
2023-07-03T17:38:17.012Z,8.33
2023-07-03T17:40:45.134Z,10.73
2023-07-03T17:43:11.657Z,8.57
2023-07-03T17:45:39.046Z,10.50
2023-07-03T17:48:05.835Z,8.40
2023-07-03T17:50:32.424Z,9.73
2023-07-03T17:52:58.826Z,9.10
2023-07-03T17:55:25.304Z,11.90
2023-07-03T17:57:51.981Z,10.02
2023-07-03T18:00:18.827Z,10.23
2023-07-03T18:02:46.268Z,7.77
2023-07-03T18:05:12.874Z,10.18
2023-07-03T18:07:45.436Z,12.18
2023-07-03T18:10:11.877Z,10.38
2023-07-03T18:12:38.302Z,15.88
2023-07-03T18:15:05.521Z,11.43
2023-07-03T18:17:32.016Z,12.85
2023-07-03T18:19:58.425Z,11.55
2023-07-03T18:22:25.814Z,11.82
2023-07-03T18:24:52.272Z,15.27
2023-07-03T18:27:18.702Z,9.67
2023-07-03T18:29:45.081Z,7.30
2023-07-03T18:32:11.468Z,10.23
2023-07-03T18:34:37.878Z,9.50
2023-07-03T18:37:04.639Z,18.58
2023-07-03T18:39:31.156Z,11.77
2023-07-03T18:41:57.493Z,13.48
2023-07-03T18:44:24.840Z,12.57
2023-07-03T18:46:51.289Z,13.02
2023-07-03T18:49:17.784Z,10.60
2023-07-03T18:51:44.209Z,11.67
2023-07-03T18:54:10.678Z,10.32
2023-07-03T18:56:37.158Z,11.65
2023-07-03T18:59:03.645Z,16.35
2023-07-03T19:01:30.687Z,13.05
2023-07-03T19:03:58.183Z,10.17
2023-07-03T19:06:24.700Z,12.18
2023-07-03T19:08:51.139Z,10.93
2023-07-03T19:11:17.671Z,15.35
2023-07-03T19:13:45.097Z,14.23
2023-07-03T19:16:12.045Z,13.60
2023-07-03T19:18:38.531Z,11.80
2023-07-03T19:21:05.087Z,16.63
2023-07-03T19:23:31.600Z,12.75
2023-07-03T19:25:59.059Z,13.13
2023-07-03T19:28:26.840Z,14.73
2023-07-03T19:30:53.186Z,10.50
2023-07-03T19:33:20.019Z,14.23
2023-07-03T19:35:46.876Z,10.52
2023-07-03T19:38:13.274Z,12.18
2023-07-03T19:40:40.388Z,10.20
2023-07-03T19:43:06.771Z,9.95
2023-07-03T19:45:37.172Z,11.50
2023-07-03T19:48:05.143Z,10.57
2023-07-03T19:50:32.276Z,8.68
2023-07-03T19:52:59.061Z,10.37
2023-07-03T19:55:25.518Z,6.80
2023-07-03T19:57:52.370Z,8.50
2023-07-03T20:00:19.939Z,9.73
2023-07-03T20:02:47.238Z,8.57
2023-07-03T20:05:14.279Z,10.90
2023-07-03T20:07:40.677Z,12.45
2023-07-03T20:10:07.736Z,9.38
2023-07-03T20:12:34.243Z,10.55
2023-07-03T20:15:00.563Z,8.80
2023-07-03T20:17:27.012Z,6.57
2023-07-03T20:19:54.875Z,8.48
2023-07-03T20:22:21.226Z,7.47
2023-07-03T20:24:47.920Z,10.93
2023-07-03T20:27:14.253Z,7.45
2023-07-03T20:29:40.907Z,5.17
2023-07-03T20:32:08.089Z,6.15
2023-07-03T20:34:35.358Z,3.83
2023-07-03T20:37:01.723Z,5.07
2023-07-03T20:39:28.141Z,7.95
2023-07-03T20:41:54.497Z,7.33
2023-07-03T20:44:20.964Z,7.22
2023-07-03T20:46:47.455Z,5.70
2023-07-03T20:49:13.839Z,7.88
2023-07-03T20:51:40.262Z,6.90
2023-07-03T20:54:06.888Z,5.90
2023-07-03T20:56:37.457Z,5.97
2023-07-03T20:59:03.929Z,5.80
2023-07-03T21:01:33.771Z,4.82
2023-07-03T21:04:06.117Z,11.30
2023-07-03T21:06:37.933Z,8.40
2023-07-03T21:09:04.916Z,7.78
2023-07-03T21:11:35.314Z,12.43
2023-07-03T21:14:04.386Z,10.38
2023-07-03T21:16:32.272Z,8.68
2023-07-03T21:18:58.720Z,11.90
2023-07-03T21:21:27.466Z,10.05
2023-07-03T21:23:53.857Z,8.57
2023-07-03T21:26:22.071Z,9.40
2023-07-03T21:28:51.577Z,10.15
2023-07-03T21:31:20.129Z,11.00
2023-07-03T21:33:46.519Z,8.75
2023-07-03T21:36:16.063Z,10.38
2023-07-03T21:38:43.432Z,8.60
2023-07-03T21:41:11.412Z,9.88
2023-07-03T21:43:39.097Z,9.83
2023-07-03T21:46:15.029Z,10.25
2023-07-03T21:48:43.553Z,6.40
2023-07-03T21:51:11.549Z,7.30
2023-07-03T21:53:38.902Z,6.88
2023-07-03T21:56:10.894Z,8.13
2023-07-03T21:58:40.420Z,8.23
2023-07-03T22:01:14.956Z,4.82
2023-07-03T22:03:41.349Z,6.50
2023-07-03T22:06:07.774Z,7.38
2023-07-03T22:08:34.271Z,5.73
2023-07-03T22:11:00.716Z,8.50
2023-07-03T22:13:27.066Z,5.63
2023-07-03T22:15:53.890Z,6.60
2023-07-03T22:18:23.434Z,4.90
2023-07-03T22:20:53.154Z,7.20
2023-07-03T22:23:30.330Z,7.03
2023-07-03T22:26:00.341Z,7.07
2023-07-03T22:28:27.562Z,6.07
2023-07-03T22:30:54.093Z,5.55
2023-07-03T22:33:21.767Z,5.10
2023-07-03T22:35:52.331Z,5.65
2023-07-03T22:38:19.577Z,6.20
2023-07-03T22:40:46.078Z,5.80
2023-07-03T22:43:12.517Z,4.88
2023-07-03T22:45:38.982Z,7.13
2023-07-03T22:48:05.878Z,8.23
2023-07-03T22:50:33.864Z,5.43
2023-07-03T22:53:00.507Z,8.73
2023-07-03T22:55:26.946Z,6.03
2023-07-03T22:57:53.351Z,7.13
2023-07-03T23:00:20.880Z,5.57
2023-07-03T23:02:48.332Z,6.82
2023-07-03T23:05:14.923Z,8.00
2023-07-03T23:07:41.364Z,6.13
2023-07-03T23:10:08.501Z,8.47
2023-07-03T23:12:35.302Z,7.40
2023-07-03T23:15:01.702Z,6.75
2023-07-03T23:17:30.299Z,5.03
2023-07-03T23:19:56.824Z,5.93
2023-07-03T23:22:24.749Z,7.57
2023-07-03T23:24:57.869Z,6.65
2023-07-03T23:27:25.109Z,11.35
2023-07-03T23:29:51.862Z,11.70
2023-07-03T23:32:18.467Z,10.57
2023-07-03T23:34:44.862Z,9.27
2023-07-03T23:37:11.628Z,9.60
2023-07-03T23:39:39.217Z,13.32
2023-07-03T23:42:07.410Z,8.32
2023-07-03T23:44:34.857Z,7.10
2023-07-03T23:47:01.753Z,8.50
2023-07-03T23:49:28.365Z,13.05
2023-07-03T23:51:55.279Z,7.63
2023-07-03T23:54:22.685Z,8.55
2023-07-03T23:56:49.674Z,8.35
2023-07-03T23:59:17.230Z,7.17
